Time;durP1;ratioP1;P1;durP2;ratioP2;P2;SDS_P1;SDS_P2;PMS_P1;PMS_P2;Temp;Humidity;BMP_temperature;BMP_pressure;BME280_temperature;BME280_humidity;BME280_pressure;Samples;Min_cycle;Max_cycle;Signal;HPM_P1;HPM_P2
2022/01/15 00:00:20;;;;;;;23.88;10.57;;;;;;;-1.83;100.00;99014.13;5026717;28;20380;-66
2022/01/15 00:02:49;;;;;;;24.52;11.13;;;;;;;-1.80;100.00;99015.09;5025935;28;20496;-67
2022/01/15 00:05:17;;;;;;;24.00;10.50;;;;;;;-1.77;100.00;99012.63;5023327;28;20132;-67
2022/01/15 00:07:48;;;;;;;22.80;9.68;;;;;;;-1.84;100.00;99005.63;5027116;28;20138;-67
2022/01/15 00:10:25;;;;;;;20.85;11.77;;;;;;;-1.74;100.00;98999.09;5026325;28;20057;-67
2022/01/15 00:12:54;;;;;;;24.20;11.20;;;;;;;-1.68;100.00;99001.84;5031163;28;20144;-67
2022/01/15 00:15:27;;;;;;;23.70;11.40;;;;;;;-1.67;100.00;98997.59;5026151;28;20049;-67
2022/01/15 00:18:06;;;;;;;22.98;11.32;;;;;;;-1.83;100.00;98996.28;5028075;28;20046;-67
2022/01/15 00:20:34;;;;;;;22.75;9.90;;;;;;;-1.99;100.00;98988.19;5028196;28;20218;-67
2022/01/15 00:23:03;;;;;;;22.27;10.68;;;;;;;-1.94;100.00;98994.31;5027327;28;20481;-67
2022/01/15 00:25:33;;;;;;;21.42;10.88;;;;;;;-2.01;100.00;98984.75;5026222;28;20136;-66
2022/01/15 00:28:02;;;;;;;28.45;12.40;;;;;;;-1.95;100.00;98989.16;5026752;28;20154;-68
2022/01/15 00:30:31;;;;;;;21.77;11.65;;;;;;;-2.21;100.00;98985.81;5026275;28;20132;-67
2022/01/15 00:32:59;;;;;;;25.15;12.18;;;;;;;-2.32;100.00;98981.28;5026302;28;20129;-68
2022/01/15 00:35:28;;;;;;;20.90;10.35;;;;;;;-2.24;100.00;98983.19;5026821;28;20049;-67
2022/01/15 00:37:56;;;;;;;24.15;12.15;;;;;;;-2.29;100.00;98984.75;5027438;28;20148;-68
2022/01/15 00:40:24;;;;;;;25.67;12.23;;;;;;;-2.23;100.00;98982.41;5025156;28;20140;-68
2022/01/15 00:42:53;;;;;;;26.02;12.68;;;;;;;-2.27;100.00;98981.41;5027373;28;20060;-67
2022/01/15 00:45:22;;;;;;;28.85;12.85;;;;;;;-2.31;100.00;98983.00;5026729;28;20128;-67
2022/01/15 00:47:52;;;;;;;32.95;15.93;;;;;;;-2.22;100.00;98982.41;5027822;28;20049;-67
2022/01/15 00:50:21;;;;;;;35.08;16.45;;;;;;;-2.21;100.00;98983.28;5025139;28;20128;-67
2022/01/15 00:52:50;;;;;;;30.00;14.68;;;;;;;-2.19;100.00;98987.63;5027255;28;20124;-67
2022/01/15 00:55:19;;;;;;;31.85;15.70;;;;;;;-2.19;100.00;98991.81;5028815;28;20580;-68
2022/01/15 00:57:48;;;;;;;30.42;14.50;;;;;;;-2.18;100.00;98984.25;5027446;28;20520;-67
2022/01/15 01:00:22;;;;;;;27.55;13.98;;;;;;;-2.15;100.00;98986.03;5030020;28;20046;-67
2022/01/15 01:02:51;;;;;;;28.85;15.60;;;;;;;-2.17;100.00;98990.19;5029445;28;20128;-67
2022/01/15 01:05:21;;;;;;;29.02;16.25;;;;;;;-2.22;100.00;98979.88;5030381;28;20050;-67
2022/01/15 01:07:49;;;;;;;31.70;15.63;;;;;;;-2.27;100.00;98973.78;5030649;28;20152;-67
2022/01/15 01:10:49;;;;;;;29.20;16.38;;;;;;;-2.31;100.00;98979.59;5029284;28;20140;-67
2022/01/15 01:22:23;;;;;;;30.38;16.88;;;-1.00;99.90;;;-2.44;100.00;98987.66;5030415;28;20120;-67
2022/01/15 01:24:28;;;;;;;33.28;17.58;;;;;;;-2.47;100.00;98982.47;5030004;28;20125;-67
2022/01/15 01:27:01;;;;;;;27.35;13.82;;;;;;;-2.53;100.00;98989.09;5030281;28;20049;-67
2022/01/15 01:34:34;;;;;;;37.17;19.58;;;-1.10;99.90;;;-2.67;100.00;98980.16;5029125;28;20473;-68
2022/01/15 01:37:10;;;;;;;32.33;18.33;;;-1.20;99.90;;;-2.77;100.00;98985.75;5028775;28;20045;-67
2022/01/15 01:39:51;;;;;;;33.67;16.58;;;-1.20;99.90;;;-2.81;100.00;98978.84;5026807;28;20120;-67
2022/01/15 01:45:21;;;;;;;25.45;14.90;;;;;;;-2.99;100.00;98974.00;5029612;28;20054;-67
2022/01/15 01:47:48;;;;;;;26.30;13.68;;;-1.60;99.90;;;-3.03;100.00;98977.28;4968815;28;20133;-67
2022/01/15 01:50:22;;;;;;;30.42;14.35;;;-1.60;99.90;;;-3.05;100.00;98973.81;5021385;28;20080;-67
2022/01/15 01:52:53;;;;;;;26.65;13.57;;;-1.60;99.90;;;-3.01;100.00;98973.09;5031681;28;20053;-67
2022/01/15 01:55:23;;;;;;;42.90;14.65;;;-1.60;99.90;;;-3.07;100.00;98971.22;5026271;28;20049;-67
2022/01/15 01:57:53;;;;;;;55.38;16.35;;;-1.60;99.90;;;-3.09;100.00;98965.22;5030413;28;20132;-67
2022/01/15 02:00:23;;;;;;;28.05;13.98;;;-1.70;99.90;;;-3.12;100.00;98970.22;5030364;28;20132;-67
2022/01/15 02:02:52;;;;;;;28.98;14.38;;;-1.70;99.90;;;-3.13;100.00;98968.47;5029638;28;20148;-68
2022/01/15 02:05:20;;;;;;;52.28;15.52;;;-1.70;99.90;;;-3.09;100.00;98972.84;5025441;28;20053;-67
2022/01/15 02:07:48;;;;;;;36.95;13.02;;;-1.70;99.90;;;-3.10;100.00;98970.25;5029451;28;20294;-69
2022/01/15 02:10:19;;;;;;;37.30;13.45;;;-1.60;99.90;;;-2.99;100.00;98972.34;5030467;28;20502;-67
2022/01/15 02:12:50;;;;;;;34.72;13.18;;;-1.60;99.90;;;-2.93;100.00;98965.75;5030774;28;20149;-67
2022/01/15 02:15:22;;;;;;;44.63;14.32;;;-1.50;99.90;;;-2.95;100.00;98961.47;5029403;28;20135;-68
2022/01/15 02:17:50;;;;;;;53.25;14.32;;;-1.50;99.90;;;-2.92;100.00;98959.84;5032618;28;20517;-68
2022/01/15 02:25:56;;;;;;;56.75;15.20;;;-1.60;99.90;;;-3.02;100.00;98967.16;5027331;28;20081;-67
2022/01/15 02:28:30;;;;;;;186.43;22.50;;;-1.60;99.90;;;-3.14;100.00;98959.13;5027574;28;20290;-67
2022/01/15 02:31:23;;;;;;;93.18;19.88;;;-1.70;99.90;;;-3.17;100.00;98959.91;5028775;28;20268;-67
2022/01/15 02:33:53;;;;;;;107.40;17.48;;;-1.80;99.90;;;-3.14;100.00;98964.22;5026995;28;20045;-68
2022/01/15 02:36:36;;;;;;;111.03;18.25;;;-1.70;99.90;;;-3.15;100.00;98972.63;5028503;28;20073;-67
2022/01/15 02:39:08;;;;;;;191.50;22.95;;;-1.70;99.90;;;-3.23;100.00;98968.97;5026790;28;20124;-67
2022/01/15 02:41:38;;;;;;;178.83;23.07;;;-1.80;99.90;;;-3.28;100.00;98961.22;5030913;28;20124;-66
2022/01/15 02:44:16;;;;;;;291.92;22.33;;;-1.80;99.90;;;-3.24;100.00;98960.50;5027682;28;20853;-67
2022/01/15 02:49:16;;;;;;;197.20;20.25;;;-1.90;99.90;;;-3.28;100.00;98960.34;5028644;28;20068;-68
2022/01/15 02:51:43;;;;;;;63.60;15.23;;;-1.90;99.90;;;-3.23;100.00;98956.28;5029126;28;20126;-67
2022/01/15 02:54:10;;;;;;;42.22;13.77;;;-1.80;99.90;;;-3.13;100.00;98958.31;5026609;28;20208;-68
2022/01/15 02:56:40;;;;;;;27.27;11.60;;;-1.70;99.90;;;-3.13;100.00;98960.00;5027738;28;20565;-67
2022/01/15 02:59:19;;;;;;;29.35;11.93;;;-1.70;99.90;;;-3.11;100.00;98951.59;5029227;28;20077;-67
2022/01/15 03:01:48;;;;;;;47.47;14.73;;;-1.70;99.90;;;-2.99;100.00;98946.06;5028526;28;20334;-67
2022/01/15 03:04:19;;;;;;;84.85;16.52;;;-1.60;99.90;;;-3.11;100.00;98948.22;5028791;28;20405;-67
2022/01/15 03:06:46;;;;;;;33.83;12.25;;;-1.60;99.90;;;-3.05;100.00;98946.75;5028983;28;20128;-67
2022/01/15 03:09:13;;;;;;;26.92;12.07;;;-1.70;99.90;;;-3.01;100.00;98940.06;5028718;28;20089;-67
2022/01/15 03:11:42;;;;;;;28.20;10.68;;;-1.70;99.90;;;-2.93;100.00;98936.13;5025459;28;20498;-68
2022/01/15 03:14:09;;;;;;;144.43;18.40;;;-1.60;99.90;;;-3.03;100.00;98926.47;5026061;28;20490;-67
2022/01/15 03:16:36;;;;;;;36.90;12.13;;;-1.70;99.90;;;-3.01;100.00;98932.44;5028399;28;20072;-67
2022/01/15 03:19:05;;;;;;;70.50;17.48;;;-1.60;99.90;;;-3.06;100.00;98931.44;5029050;28;20067;-68
2022/01/15 03:21:32;;;;;;;22.70;10.60;;;-1.70;99.90;;;-3.04;100.00;98925.59;5028903;28;20107;-67
2022/01/15 03:23:59;;;;;;;38.33;13.43;;;-1.60;99.90;;;-2.95;100.00;98925.88;5026530;28;20522;-68
2022/01/15 03:26:27;;;;;;;55.28;13.38;;;-1.60;99.90;;;-3.00;100.00;98924.03;5026831;28;20042;-67
2022/01/15 03:28:53;;;;;;;49.53;14.07;;;-1.60;99.90;;;-3.03;100.00;98929.03;5026973;28;20067;-68
2022/01/15 03:31:20;;;;;;;81.32;15.25;;;-1.60;99.90;;;-3.04;100.00;98920.50;5028533;28;20127;-67
2022/01/15 03:33:47;;;;;;;34.65;10.73;;;-1.70;99.90;;;-3.03;100.00;98922.25;5026498;28;20489;-67
2022/01/15 03:36:14;;;;;;;190.40;17.30;;;-1.60;99.90;;;-3.03;100.00;98922.25;5028786;28;20128;-67
2022/01/15 03:38:42;;;;;;;56.50;11.98;;;-1.70;99.90;;;-3.17;100.00;98924.34;5026599;28;20128;-67
2022/01/15 03:41:09;;;;;;;179.18;18.90;;;-1.70;99.90;;;-3.16;100.00;98910.81;5027102;28;20132;-67
2022/01/15 03:43:35;;;;;;;159.10;18.10;;;-1.70;99.90;;;-3.16;100.00;98909.97;5027725;28;20132;-67
2022/01/15 03:46:03;;;;;;;92.40;14.48;;;-1.80;99.90;;;-3.13;100.00;98919.34;5028863;28;20049;-67
2022/01/15 03:48:30;;;;;;;123.93;20.30;;;-1.80;99.90;;;-3.18;100.00;98924.28;5026771;28;20111;-68
2022/01/15 03:50:57;;;;;;;88.95;17.25;;;-1.80;99.90;;;-3.12;100.00;98911.78;5028939;28;20060;-67
2022/01/15 03:53:24;;;;;;;47.97;11.95;;;-1.80;99.90;;;-3.07;100.00;98911.94;5027212;28;20136;-68
2022/01/15 03:55:51;;;;;;;38.95;12.57;;;-1.70;99.90;;;-2.98;100.00;98912.25;5025350;28;20139;-67
2022/01/15 03:58:19;;;;;;;43.85;10.85;;;-1.60;99.90;;;-2.85;100.00;98908.41;5025711;28;20100;-68
2022/01/15 04:00:48;;;;;;;142.18;15.13;;;-1.50;99.90;;;-2.96;100.00;98905.53;5026300;28;20124;-67
2022/01/15 04:03:16;;;;;;;81.25;14.05;;;-1.50;99.90;;;-3.04;100.00;98909.50;5026978;28;20059;-67
2022/01/15 04:05:43;;;;;;;72.20;16.77;;;-1.60;99.90;;;-2.93;100.00;98894.63;5025880;28;20068;-68
2022/01/15 04:08:10;;;;;;;95.60;16.90;;;-1.60;99.90;;;-3.02;100.00;98898.56;5030132;28;20053;-68
2022/01/15 04:10:37;;;;;;;116.35;16.80;;;-1.60;99.90;;;-3.07;100.00;98910.25;5027412;28;20049;-67
2022/01/15 04:13:04;;;;;;;214.02;22.25;;;-1.60;99.90;;;-3.04;100.00;98900.19;5027009;28;20096;-67
2022/01/15 04:15:31;;;;;;;131.38;18.95;;;-1.70;99.90;;;-3.02;100.00;98905.34;5029818;28;20071;-67
2022/01/15 04:17:58;;;;;;;57.97;14.88;;;-1.70;99.90;;;-3.03;100.00;98901.09;5027872;28;20083;-67
2022/01/15 04:20:25;;;;;;;90.45;17.77;;;-1.70;99.90;;;-2.89;100.00;98902.38;5028684;28;20354;-67
2022/01/15 04:22:53;;;;;;;58.13;14.05;;;-1.60;99.90;;;-2.92;100.00;98897.19;5029908;28;20478;-67
2022/01/15 04:25:21;;;;;;;57.20;13.05;;;-1.50;99.90;;;-2.87;100.00;98893.13;5026866;28;20493;-67
2022/01/15 04:27:49;;;;;;;115.63;14.70;;;-1.50;99.90;;;-2.89;100.00;98891.38;5027666;28;20599;-68
2022/01/15 04:30:18;;;;;;;113.55;15.55;;;-1.50;99.90;;;-2.93;100.00;98892.94;5031231;28;20292;-67
2022/01/15 04:32:45;;;;;;;114.50;17.00;;;-1.50;99.90;;;-2.95;100.00;98885.25;5031206;28;20144;-67
2022/01/15 04:35:19;;;;;;;90.50;16.52;;;-1.50;99.90;;;-2.89;100.00;98884.59;5031099;28;20107;-67
2022/01/15 04:37:50;;;;;;;42.75;13.57;;;-1.50;99.90;;;-2.89;100.00;98886.28;5033036;28;20037;-67
2022/01/15 04:40:17;;;;;;;53.63;15.82;;;-1.50;99.90;;;-2.83;100.00;98883.91;5030490;28;20041;-67
2022/01/15 04:42:44;;;;;;;153.98;19.00;;;-1.50;99.90;;;-2.92;100.00;98878.53;5029905;28;20095;-67
2022/01/15 04:45:12;;;;;;;178.05;18.35;;;-1.50;99.90;;;-2.90;100.00;98876.91;5030146;28;20548;-67
2022/01/15 04:47:40;;;;;;;167.18;20.70;;;-1.50;99.90;;;-2.90;100.00;98877.78;5032369;28;20170;-68
2022/01/15 04:50:13;;;;;;;102.68;18.05;;;-1.50;99.90;;;-2.86;100.00;98878.75;5031326;28;20443;-67
2022/01/15 04:52:41;;;;;;;159.63;20.27;;;-1.50;99.90;;;-2.87;100.00;98877.00;5029116;28;20045;-67
2022/01/15 04:55:10;;;;;;;87.40;18.38;;;-1.50;99.90;;;-2.86;100.00;98882.13;5031327;28;20049;-67
2022/01/15 04:57:40;;;;;;;200.85;19.38;;;-1.50;99.90;;;-2.82;100.00;98886.50;5031964;28;20147;-67
2022/01/15 05:00:12;;;;;;;240.73;20.95;;;-1.50;99.90;;;-2.83;100.00;98883.91;5029010;28;20045;-68
2022/01/15 05:02:39;;;;;;;66.25;14.77;;;-1.40;99.90;;;-2.78;100.00;98887.47;5031074;28;21040;-67
2022/01/15 05:05:07;;;;;;;235.77;24.25;;;-1.40;99.90;;;-2.80;100.00;98884.88;5031258;28;20095;-67
2022/01/15 05:07:34;;;;;;;112.97;19.38;;;-1.50;99.90;;;-2.70;100.00;98885.16;5031567;28;20429;-68
2022/01/15 05:10:01;;;;;;;82.18;15.60;;;-1.40;99.90;;;-2.66;100.00;98887.00;5028915;28;20076;-68
2022/01/15 05:12:31;;;;;;;136.43;18.98;;;-1.30;99.90;;;-2.66;100.00;98897.16;5030015;28;20055;-68
2022/01/15 05:14:59;;;;;;;106.72;17.15;;;-1.30;99.90;;;-2.71;100.00;98885.97;5030327;28;20046;-68
2022/01/15 05:17:26;;;;;;;199.75;21.15;;;-1.30;99.90;;;-2.67;100.00;98881.03;5029919;28;20143;-68
2022/01/15 05:19:53;;;;;;;291.15;23.95;;;-1.30;99.90;;;-2.72;100.00;98890.19;5047254;28;20083;-67
2022/01/15 05:22:20;;;;;;;351.75;31.35;;;-1.30;99.90;;;-2.78;100.00;98884.94;5031538;28;20075;-68
2022/01/15 05:24:47;;;;;;;219.52;22.95;;;-1.40;99.90;;;-2.77;100.00;98877.34;5031397;28;20049;-67
2022/01/15 05:27:14;;;;;;;540.67;39.35;;;-1.40;99.90;;;-2.84;100.00;98877.97;5032243;28;20053;-68
2022/01/15 05:29:41;;;;;;;353.00;29.88;;;-1.50;99.90;;;-2.82;100.00;98878.03;5027727;28;20136;-67
2022/01/15 05:32:08;;;;;;;403.20;30.35;;;-1.50;99.90;;;-2.82;100.00;98865.31;5030823;28;20439;-67
2022/01/15 05:34:38;;;;;;;179.73;18.20;;;-1.50;99.90;;;-2.82;100.00;98866.19;5030845;28;20077;-67
2022/01/15 05:37:06;;;;;;;261.17;23.02;;;-1.40;99.90;;;-2.78;100.00;98873.09;5032352;28;20041;-68
2022/01/15 05:39:33;;;;;;;173.70;18.50;;;-1.40;99.90;;;-2.77;100.00;98866.31;5029282;28;20128;-67
2022/01/15 05:42:00;;;;;;;474.92;35.10;;;-1.40;99.90;;;-2.77;100.00;98862.09;5030371;28;20046;-67
2022/01/15 05:44:27;;;;;;;594.47;37.13;;;-1.40;99.90;;;-2.81;100.00;98869.56;5031017;28;20133;-67
2022/01/15 05:46:54;;;;;;;259.95;23.98;;;-1.40;99.90;;;-2.78;100.00;98864.63;5030902;28;20432;-68
2022/01/15 05:49:21;;;;;;;304.77;24.25;;;-1.40;99.90;;;-2.72;100.00;98862.25;5030005;28;20568;-67
2022/01/15 05:51:49;;;;;;;155.93;19.40;;;-1.40;99.90;;;-2.68;100.00;98858.97;5031953;28;20396;-67
2022/01/15 05:54:16;;;;;;;143.15;16.73;;;-1.30;99.90;;;-2.64;100.00;98863.34;5032138;28;20075;-67
2022/01/15 05:56:46;;;;;;;57.67;14.32;;;-1.20;99.90;;;-2.56;100.00;98866.09;5032168;28;20528;-67
2022/01/15 05:59:13;;;;;;;66.82;13.00;;;-1.20;99.90;;;-2.60;100.00;98861.75;5030652;28;20120;-67
2022/01/15 06:01:40;;;;;;;72.85;14.60;;;-1.20;99.90;;;-2.49;100.00;98860.38;5029440;28;20042;-66
2022/01/15 06:04:07;;;;;;;256.52;20.58;;;-1.20;99.90;;;-2.53;100.00;98854.38;5031256;28;20058;-68
2022/01/15 06:06:34;;;;;;;226.45;20.30;;;-1.20;99.90;;;-2.57;100.00;98859.31;5030852;28;20129;-68
2022/01/15 06:09:03;;;;;;;164.60;20.13;;;-1.30;99.90;;;-2.61;100.00;98850.72;5029356;28;20082;-68
2022/01/15 06:11:31;;;;;;;74.60;12.80;;;-1.30;99.90;;;-2.60;100.00;98849.03;5033464;28;20089;-68
2022/01/15 06:13:58;;;;;;;124.47;17.13;;;-1.20;99.90;;;-2.54;100.00;98844.13;5028534;28;20380;-67
2022/01/15 06:16:25;;;;;;;69.72;14.07;;;-1.20;99.90;;;-2.48;100.00;98839.25;5031044;28;20049;-68
2022/01/15 06:18:52;;;;;;;86.32;16.20;;;-1.20;99.90;;;-2.53;100.00;98843.34;5029507;28;20087;-67
2022/01/15 06:21:19;;;;;;;240.80;22.65;;;-1.20;99.90;;;-2.58;100.00;98835.59;5030846;28;20055;-68
2022/01/15 06:23:46;;;;;;;99.13;18.23;;;-1.20;99.90;;;-2.56;100.00;98839.00;5029454;28;20136;-67
2022/01/15 06:26:13;;;;;;;96.47;17.38;;;-1.20;99.90;;;-2.53;100.00;98836.56;5031584;28;20173;-67
2022/01/15 06:28:41;;;;;;;257.30;20.25;;;-1.10;99.90;;;-2.55;100.00;98839.88;5026820;28;20083;-68
2022/01/15 06:31:08;;;;;;;114.90;17.35;;;-1.20;99.90;;;-2.55;100.00;98839.88;5027769;28;20077;-67
2022/01/15 06:33:35;;;;;;;136.07;18.48;;;-1.20;99.90;;;-2.51;100.00;98846.75;5029707;28;20049;-67
2022/01/15 06:36:02;;;;;;;259.95;22.42;;;-1.10;99.90;;;-2.50;100.00;98842.56;5030081;28;20204;-69
2022/01/15 06:38:29;;;;;;;65.25;13.50;;;-1.10;99.90;;;-2.45;100.00;98839.31;5027260;28;20491;-68
2022/01/15 06:40:56;;;;;;;138.70;13.98;;;-1.10;99.90;;;-2.42;100.00;98841.09;5032086;28;20148;-67
2022/01/15 06:43:23;;;;;;;194.27;19.23;;;-1.10;99.90;;;-2.53;100.00;98841.66;5030156;28;20128;-67
2022/01/15 06:45:50;;;;;;;86.40;12.27;;;-1.00;99.90;;;-2.46;100.00;98836.72;5028634;28;20150;-68
2022/01/15 06:48:17;;;;;;;232.55;18.83;;;-1.00;99.90;;;-2.45;100.00;98856.28;5028372;28;20041;-67
2022/01/15 06:50:44;;;;;;;175.40;17.13;;;-1.00;99.90;;;-2.45;100.00;98857.13;5029139;28;20049;-67
2022/01/15 06:53:11;;;;;;;449.98;30.73;;;-1.10;99.90;;;-2.46;100.00;98857.06;5030675;28;20045;-68
2022/01/15 06:55:39;;;;;;;103.60;12.95;;;-1.10;99.90;;;-2.43;100.00;98860.56;5031749;28;20467;-67
2022/01/15 06:58:06;;;;;;;218.15;19.00;;;-1.10;99.90;;;-2.44;100.00;98858.88;5029561;28;20076;-67
2022/01/15 07:00:33;;;;;;;77.80;14.43;;;-1.10;99.90;;;-2.40;100.00;98858.13;5027933;28;20064;-67
2022/01/15 07:03:02;;;;;;;146.77;15.48;;;-1.00;99.90;;;-2.36;100.00;98852.31;5028699;28;20049;-67
2022/01/15 07:05:29;;;;;;;106.18;13.85;;;-1.00;99.90;;;-2.35;100.00;98841.34;5028807;28;20454;-67
2022/01/15 07:07:56;;;;;;;90.47;14.05;;;-0.90;99.90;;;-2.23;100.00;98845.91;5029442;28;20219;-68
2022/01/15 07:10:24;;;;;;;164.35;17.60;;;-0.90;99.90;;;-2.33;100.00;98848.97;5028708;28;20144;-67
2022/01/15 07:12:52;;;;;;;288.60;21.63;;;-1.00;99.90;;;-2.35;100.00;98848.06;5024686;28;20084;-68
2022/01/15 07:15:19;;;;;;;112.40;15.02;;;-1.00;99.90;;;-2.31;100.00;98842.25;5028578;28;20060;-67
2022/01/15 07:17:48;;;;;;;259.02;20.50;;;-1.00;99.90;;;-2.31;100.00;98838.03;5028221;28;20049;-68
2022/01/15 07:20:18;;;;;;;123.68;15.20;;;-1.00;99.90;;;-2.27;100.00;98841.53;5030286;28;20192;-67
2022/01/15 07:22:46;;;;;;;120.90;16.42;;;-0.90;99.90;;;-2.20;100.00;98840.91;5031027;28;20100;-67
2022/01/15 07:25:13;;;;;;;130.45;15.57;;;-0.90;99.90;;;-2.29;100.00;98840.63;5026596;28;20076;-67
2022/01/15 07:27:40;;;;;;;242.25;19.65;;;-0.90;99.90;;;-2.30;100.00;98838.91;5027909;28;20053;-67
2022/01/15 07:30:10;;;;;;;156.75;16.00;;;-0.90;99.90;;;-2.23;100.00;98838.28;5026861;28;20076;-67
2022/01/15 07:32:37;;;;;;;115.20;13.73;;;-0.90;99.90;;;-2.21;100.00;98836.63;5024725;28;20516;-67
2022/01/15 07:35:05;;;;;;;102.13;15.35;;;-0.80;99.90;;;-2.15;100.00;98836.78;5028540;28;20136;-68
2022/01/15 07:37:32;;;;;;;58.15;12.82;;;-0.80;99.90;;;-2.18;100.00;98836.72;5029081;28;20041;-68
2022/01/15 07:40:00;;;;;;;165.55;16.52;;;-0.80;99.90;;;-2.13;100.00;98839.38;5026502;28;20073;-67
2022/01/15 07:42:34;;;;;;;123.90;13.90;;;-0.80;99.90;;;-2.12;100.00;98843.69;5029982;28;20472;-68
2022/01/15 07:45:10;;;;;;;103.90;14.80;;;-0.70;99.90;;;-2.08;100.00;98842.91;5029496;28;20140;-68
2022/01/15 07:47:38;;;;;;;54.70;12.25;;;-0.70;99.90;;;-2.04;100.00;98848.97;5027815;28;20493;-67
2022/01/15 07:50:10;;;;;;;81.82;13.05;;;-0.70;99.90;;;-2.02;100.00;98849.88;5028011;28;20095;-68
2022/01/15 07:52:37;;;;;;;239.65;20.88;;;-0.70;99.90;;;-2.01;100.00;98849.03;5027157;28;20143;-67
2022/01/15 07:55:06;;;;;;;186.13;18.40;;;-0.70;99.90;;;-1.98;100.00;98846.59;5023749;28;20527;-67
2022/01/15 07:57:50;;;;;;;145.50;16.35;;;-0.70;99.90;;;-1.93;100.00;98855.22;5024719;28;20041;-68
2022/01/15 08:00:19;;;;;;;109.32;17.65;;;-0.60;99.90;;;-1.89;100.00;98849.41;5024505;28;20088;-67
2022/01/15 08:02:46;;;;;;;122.53;13.27;;;-0.50;99.90;;;-1.70;100.00;98848.19;5025774;28;20160;-67
2022/01/15 08:05:13;;;;;;;223.82;19.73;;;-0.50;99.90;;;-1.74;100.00;98848.94;5029107;28;20124;-67
2022/01/15 08:07:40;;;;;;;300.98;23.02;;;-0.40;99.90;;;-1.95;100.00;98844.13;5027304;28;20120;-68
2022/01/15 08:10:08;;;;;;;204.82;17.40;;;-0.60;99.90;;;-1.91;100.00;98846.78;5026156;28;20053;-67
2022/01/15 08:12:45;;;;;;;376.92;26.10;;;-0.50;99.90;;;-1.93;100.00;98857.75;5024841;28;20220;-68
2022/01/15 08:15:17;;;;;;;367.40;23.60;;;-0.60;99.90;;;-1.89;100.00;98857.03;5026654;28;20048;-67
2022/01/15 08:17:44;;;;;;;161.90;19.27;;;-0.60;99.90;;;-1.80;100.00;98858.94;5025813;28;20144;-68
2022/01/15 08:20:13;;;;;;;109.85;17.23;;;-0.50;99.90;;;-1.78;100.00;98855.63;5026345;28;20088;-67
2022/01/15 08:22:42;;;;;;;355.85;23.55;;;-0.40;99.90;;;-1.73;100.00;98856.63;5024541;28;20164;-68
2022/01/15 08:25:10;;;;;;;473.73;29.30;;;-0.30;99.90;;;-1.71;100.00;98851.53;5025442;28;20135;-66
2022/01/15 08:27:37;;;;;;;165.20;17.10;;;-0.30;99.90;;;-1.70;100.00;98864.31;5025267;28;20136;-67
2022/01/15 08:30:07;;;;;;;320.30;23.63;;;-0.30;99.90;;;-1.65;100.00;98859.34;5028327;28;20156;-68
2022/01/15 08:32:34;;;;;;;140.35;14.32;;;-0.20;99.90;;;-1.41;100.00;98854.06;5029670;28;20404;-67
2022/01/15 08:35:02;;;;;;;391.45;27.35;;;-0.10;99.90;;;-1.56;100.00;98854.50;5026766;28;20050;-67
2022/01/15 08:37:29;;;;;;;166.23;16.95;;;-0.20;99.90;;;-1.48;100.00;98858.13;5029325;28;20125;-67
2022/01/15 08:39:56;;;;;;;341.30;25.73;;;-0.10;99.90;;;-1.60;100.00;98852.69;5026087;28;20149;-68
2022/01/15 08:42:23;;;;;;;68.63;14.95;;;-0.20;99.90;;;-1.56;100.00;98854.50;5027055;28;20037;-68
2022/01/15 08:44:51;;;;;;;145.32;18.25;;;-0.20;99.90;;;-1.67;100.00;98848.25;5029003;28;20059;-67
2022/01/15 08:47:19;;;;;;;261.27;23.23;;;-0.30;99.90;;;-1.72;100.00;98844.75;5023934;28;20092;-68
2022/01/15 08:49:46;;;;;;;307.67;26.05;;;-0.30;99.90;;;-1.76;100.00;98838.69;5026316;28;20060;-67
2022/01/15 08:52:13;;;;;;;55.05;13.38;;;-0.40;99.90;;;-1.59;100.00;98843.41;5026412;28;20045;-67
2022/01/15 08:54:40;;;;;;;141.23;21.35;;;-0.20;99.90;;;-1.57;100.00;98834.97;5026628;28;20121;-67
2022/01/15 08:57:07;;;;;;;176.77;17.83;;;-0.20;99.90;;;-1.64;100.00;98832.19;5022402;28;20050;-67
2022/01/15 08:59:34;;;;;;;185.23;19.85;;;-0.30;99.90;;;-1.67;100.00;98832.13;5022800;28;20060;-67
2022/01/15 09:02:02;;;;;;;380.17;31.05;;;-0.30;99.90;;;-1.78;100.00;98834.38;5026905;28;20049;-67
2022/01/15 09:04:29;;;;;;;258.38;23.30;;;-0.40;99.90;;;-1.72;100.00;98832.88;5024066;28;20415;-67
2022/01/15 09:06:56;;;;;;;191.73;25.83;;;-0.40;99.90;;;-1.67;100.00;98827.91;5023546;28;20367;-66
2022/01/15 09:09:23;;;;;;;128.02;17.58;;;-0.30;99.90;;;-1.54;100.00;98829.09;5024455;28;20125;-67
2022/01/15 09:11:50;;;;;;;123.45;22.48;;;-0.20;99.90;;;-1.60;100.00;98822.13;5027404;28;20468;-66
2022/01/15 09:14:17;;;;;;;60.70;16.90;;;-0.20;99.90;;;-1.56;100.00;98823.09;5027318;28;20471;-68
2022/01/15 09:16:44;;;;;;;62.83;16.92;;;-0.20;99.90;;;-1.28;100.00;98838.25;5028378;28;20490;-67
2022/01/15 09:19:13;;;;;;;89.82;17.10;;;0.00;99.90;;;-1.21;100.00;98830.75;5025757;28;20042;-67
2022/01/15 09:21:40;;;;;;;106.03;16.55;;;0.10;99.90;;;-1.15;100.00;98825.81;5026903;28;20046;-67
2022/01/15 09:24:07;;;;;;;158.15;20.23;;;0.20;99.90;;;-1.24;100.00;98826.44;5022332;28;20393;-68
2022/01/15 09:32:04;;;;;;;50.35;14.57;;;0.10;99.90;;;-1.35;100.00;98810.88;5029394;28;20053;-67
2022/01/15 09:34:34;;;;;;;87.28;17.60;;;0.10;99.90;;;-1.20;100.00;98815.50;5027900;28;20049;-68
2022/01/15 09:37:05;;;;;;;50.70;12.82;;;0.20;99.90;;;-1.34;100.00;98809.22;5028378;28;20045;-67
2022/01/15 09:39:33;;;;;;;87.50;19.10;;;0.20;99.90;;;-1.40;100.00;98812.47;5028067;28;20526;-68
2022/01/15 09:42:00;;;;;;;122.43;21.00;;;0.10;99.90;;;-1.47;100.00;98805.50;5030006;28;20112;-68
2022/01/15 09:44:27;;;;;;;69.35;18.10;;;0.00;99.90;;;-1.40;100.00;98797.19;5030908;28;20446;-68
2022/01/15 09:46:54;;;;;;;67.03;16.73;;;0.00;99.90;;;-1.22;100.00;98789.13;5031289;28;20131;-68
2022/01/15 09:49:23;;;;;;;81.20;18.15;;;0.10;99.90;;;-1.18;100.00;98793.47;5030096;28;20107;-68
2022/01/15 09:51:51;;;;;;;60.72;18.50;;;0.20;99.90;;;-1.15;100.00;98787.59;5029236;28;20124;-68
2022/01/15 09:54:19;;;;;;;37.33;13.75;;;0.30;99.90;;;-1.14;100.00;98791.84;5025414;28;20090;-68
2022/01/15 09:56:49;;;;;;;35.53;13.77;;;0.40;99.90;;;-0.96;100.00;98789.72;5027322;28;20041;-67
2022/01/15 09:59:17;;;;;;;51.97;17.42;;;0.50;99.90;;;-0.91;100.00;98784.75;5029035;28;20362;-68
2022/01/15 10:01:46;;;;;;;72.10;16.77;;;0.50;99.90;;;-0.91;100.00;98790.72;5027038;28;20049;-68
2022/01/15 10:04:13;;;;;;;61.75;12.98;;;0.80;99.90;;;-0.59;100.00;98790.53;5028683;28;20523;-68
2022/01/15 10:07:09;;;;;;;90.93;16.48;;;0.90;99.90;;;-0.59;100.00;98785.44;5027559;28;20100;-68
2022/01/15 10:09:37;;;;;;;49.05;15.48;;;0.90;99.90;;;-0.67;100.00;98785.25;5028016;28;20194;-67
2022/01/15 10:12:05;;;;;;;52.47;15.63;;;0.80;99.90;;;-0.70;100.00;98784.34;5028648;28;20140;-67
2022/01/15 10:14:36;;;;;;;95.82;16.48;;;0.70;99.90;;;-0.59;100.00;98782.00;5029712;28;20083;-69
2022/01/15 10:17:26;;;;;;;175.85;20.50;;;1.00;99.90;;;-0.48;100.00;98776.34;5031438;28;20091;-66
2022/01/15 10:19:57;;;;;;;184.70;16.90;;;1.00;99.90;;;-0.36;100.00;98774.84;5030390;28;20085;-67
2022/01/15 10:22:27;;;;;;;90.20;14.52;;;1.10;99.90;;;-0.44;100.00;98777.22;5028975;28;20107;-67
2022/01/15 10:25:07;;;;;;;154.63;17.10;;;1.10;99.90;;;-0.51;100.00;98771.16;5026175;28;20171;-67
2022/01/15 10:27:40;;;;;;;112.55;17.67;;;1.10;99.90;;;-0.47;100.00;98772.94;5029851;28;20462;-67
2022/01/15 10:30:23;;;;;;;48.67;17.03;;;1.00;99.90;;;-0.52;100.00;98774.53;5028825;28;20140;-66
2022/01/15 10:33:08;;;;;;;39.85;16.23;;;1.00;99.90;;;-0.46;100.00;98766.13;5029332;28;20311;-67
2022/01/15 10:35:38;;;;;;;130.63;18.25;;;1.00;99.90;;;-0.80;100.00;98767.97;5028013;28;20548;-67
2022/01/15 10:38:12;;;;;;;117.05;16.65;;;0.90;99.90;;;-0.81;100.00;98757.75;5028093;28;20115;-68
2022/01/15 10:40:50;;;;;;;104.80;16.35;;;0.80;99.90;;;-0.95;100.00;98757.47;5029286;28;20128;-68
2022/01/15 10:43:19;;;;;;;67.05;13.80;;;0.60;99.90;;;-0.87;100.00;98758.47;5027456;28;20084;-69